QFA520 YSSY-YBBN
Flight info
| Callsign | QFA520 |
|---|---|
| Flight time | 1h 11m |
| Altitude | 37000 |
| Route | TESAT H252 OLSEM Y193 BANDA H252 BN |
| Aircraft | B738/M-SDE2E3FGHIRWXY/LB1 |
Departure
| Time | 2026-04-25 07:09 |
|---|---|
| Airport | Sydney Kingsford Smith International Airport (YSSY) |
Arrival
| Time | 2026-04-25 08:20 |
|---|---|
| Airport | Brisbane International Airport (YBBN) |
| Time | Latitude | Longitude | Altitude | Speed | Heading |
|---|---|---|---|---|---|
| 2026-04-25 06:23 | -33.93146 | 151.17859 | 28 ft | 0 kts | 191° |
| 2026-04-25 06:50 | -33.93142 | 151.17859 | 28 ft | 2 kts | 191° |
| 2026-04-25 06:50 | -33.93127 | 151.17862 | 28 ft | 2 kts | 191° |
| 2026-04-25 06:50 | -33.93113 | 151.17866 | 27 ft | 2 kts | 191° |
| 2026-04-25 06:51 | -33.93098 | 151.17873 | 28 ft | 2 kts | 215° |
| 2026-04-25 06:51 | -33.93087 | 151.17885 | 28 ft | 2 kts | 235° |
| 2026-04-25 06:51 | -33.93081 | 151.17900 | 28 ft | 2 kts | 257° |
| 2026-04-25 06:51 | -33.93080 | 151.17917 | 28 ft | 0 kts | 277° |
| 2026-04-25 06:52 | -33.93081 | 151.17925 | 28 ft | 1 kts | 281° |
| 2026-04-25 06:52 | -33.93081 | 151.17926 | 28 ft | 0 kts | 281° |
| 2026-04-25 06:55 | -33.93077 | 151.17896 | 28 ft | 10 kts | 280° |
| 2026-04-25 06:56 | -33.93065 | 151.17821 | 28 ft | 8 kts | 279° |
| 2026-04-25 06:56 | -33.93037 | 151.17719 | 28 ft | 14 kts | 297° |
| 2026-04-25 06:56 | -33.93010 | 151.17612 | 28 ft | 12 kts | 281° |
| 2026-04-25 06:56 | -33.93064 | 151.17516 | 28 ft | 13 kts | 249° |
| 2026-04-25 06:57 | -33.93113 | 151.17444 | 28 ft | 13 kts | 185° |
| 2026-04-25 06:57 | -33.93262 | 151.17471 | 28 ft | 28 kts | 167° |
| 2026-04-25 06:57 | -33.93447 | 151.17500 | 28 ft | 25 kts | 182° |
| 2026-04-25 06:57 | -33.93607 | 151.17535 | 28 ft | 21 kts | 169° |
| 2026-04-25 06:58 | -33.93735 | 151.17567 | 28 ft | 9 kts | 167° |
| 2026-04-25 06:58 | -33.93742 | 151.17570 | 28 ft | 0 kts | 167° |
| 2026-04-25 06:58 | -33.93779 | 151.17580 | 28 ft | 15 kts | 168° |
| 2026-04-25 06:58 | -33.93866 | 151.17642 | 28 ft | 14 kts | 92° |
| 2026-04-25 06:59 | -33.93865 | 151.17758 | 28 ft | 18 kts | 127° |
| 2026-04-25 06:59 | -33.94013 | 151.17810 | 28 ft | 28 kts | 168° |
| 2026-04-25 06:59 | -33.94254 | 151.17871 | 27 ft | 34 kts | 168° |
| 2026-04-25 06:59 | -33.94454 | 151.17900 | 28 ft | 25 kts | 198° |
| 2026-04-25 07:00 | -33.94614 | 151.17906 | 28 ft | 23 kts | 168° |
| 2026-04-25 07:00 | -33.94790 | 151.17950 | 27 ft | 27 kts | 168° |
| 2026-04-25 07:00 | -33.94991 | 151.18005 | 28 ft | 22 kts | 169° |
| 2026-04-25 07:00 | -33.95039 | 151.18016 | 27 ft | 5 kts | 168° |
| 2026-04-25 07:01 | -33.95087 | 151.18042 | 27 ft | 9 kts | 129° |
| 2026-04-25 07:01 | -33.95094 | 151.18133 | 27 ft | 13 kts | 80° |
| 2026-04-25 07:01 | -33.95073 | 151.18259 | 28 ft | 16 kts | 77° |
| 2026-04-25 07:01 | -33.95066 | 151.18295 | 27 ft | 0 kts | 77° |
| 2026-04-25 07:02 | -33.95065 | 151.18300 | 28 ft | 0 kts | 77° |
| 2026-04-25 07:02 | -33.95065 | 151.18301 | 28 ft | 0 kts | 77° |
| 2026-04-25 07:02 | -33.95065 | 151.18303 | 28 ft | 0 kts | 77° |
| 2026-04-25 07:03 | -33.95055 | 151.18353 | 28 ft | 9 kts | 77° |
| 2026-04-25 07:03 | -33.95042 | 151.18445 | 27 ft | 15 kts | 95° |
| 2026-04-25 07:03 | -33.95097 | 151.18526 | 28 ft | 12 kts | 139° |
| 2026-04-25 07:03 | -33.95176 | 151.18613 | 28 ft | 14 kts | 137° |
| 2026-04-25 07:04 | -33.95261 | 151.18695 | 27 ft | 19 kts | 150° |
| 2026-04-25 07:04 | -33.95423 | 151.18749 | 28 ft | 26 kts | 168° |
| 2026-04-25 07:04 | -33.95594 | 151.18794 | 28 ft | 23 kts | 168° |
| 2026-04-25 07:04 | -33.95743 | 151.18834 | 28 ft | 20 kts | 169° |
| 2026-04-25 07:05 | -33.95871 | 151.18866 | 27 ft | 17 kts | 167° |
| 2026-04-25 07:05 | -33.95977 | 151.18896 | 27 ft | 15 kts | 167° |
| 2026-04-25 07:05 | -33.96140 | 151.18938 | 27 ft | 29 kts | 169° |
| 2026-04-25 07:05 | -33.96327 | 151.18990 | 27 ft | 25 kts | 165° |
| 2026-04-25 07:06 | -33.96492 | 151.19029 | 27 ft | 22 kts | 168° |
| 2026-04-25 07:06 | -33.96637 | 151.19066 | 27 ft | 19 kts | 168° |
| 2026-04-25 07:06 | -33.96778 | 151.19066 | 27 ft | 21 kts | 183° |
| 2026-04-25 07:06 | -33.96934 | 151.19096 | 27 ft | 25 kts | 168° |
| 2026-04-25 07:07 | -33.97063 | 151.19130 | 27 ft | 12 kts | 167° |
| 2026-04-25 07:07 | -33.97123 | 151.19194 | 27 ft | 11 kts | 95° |
| 2026-04-25 07:07 | -33.97111 | 151.19278 | 27 ft | 9 kts | 76° |
| 2026-04-25 07:07 | -33.97063 | 151.19362 | 27 ft | 14 kts | 22° |
| 2026-04-25 07:08 | -33.96970 | 151.19353 | 27 ft | 18 kts | 348° |
| 2026-04-25 07:08 | -33.96559 | 151.19246 | 28 ft | 103 kts | 348° |
| 2026-04-25 07:08 | -33.95611 | 151.18986 | 54 ft | 172 kts | 349° |
| 2026-04-25 07:08 | -33.94354 | 151.18579 | 479 ft | 207 kts | 348° |
| 2026-04-25 07:09 | -33.92878 | 151.18315 | 1454 ft | 211 kts | 9° |
| 2026-04-25 07:09 | -33.91539 | 151.18988 | 2143 ft | 224 kts | 44° |
| 2026-04-25 07:09 | -33.90540 | 151.20496 | 2862 ft | 239 kts | 53° |
| 2026-04-25 07:09 | -33.89427 | 151.22051 | 3583 ft | 254 kts | 43° |
| 2026-04-25 07:10 | -33.88050 | 151.23438 | 4516 ft | 261 kts | 38° |
| 2026-04-25 07:10 | -33.86586 | 151.24719 | 5462 ft | 266 kts | 36° |
| 2026-04-25 07:10 | -33.85074 | 151.26003 | 6372 ft | 272 kts | 36° |
| 2026-04-25 07:10 | -33.83593 | 151.27411 | 7283 ft | 275 kts | 49° |
| 2026-04-25 07:11 | -33.82660 | 151.29359 | 8248 ft | 275 kts | 71° |
| 2026-04-25 07:11 | -33.82141 | 151.31555 | 9163 ft | 277 kts | 77° |
| 2026-04-25 07:11 | -33.81680 | 151.33809 | 10122 ft | 279 kts | 77° |
| 2026-04-25 07:11 | -33.81141 | 151.36043 | 11067 ft | 286 kts | 71° |
| 2026-04-25 07:12 | -33.80182 | 151.38199 | 11690 ft | 300 kts | 56° |
| 2026-04-25 07:12 | -33.77332 | 151.42177 | 12703 ft | 331 kts | 49° |
| 2026-04-25 07:12 | -33.75777 | 151.44289 | 13356 ft | 341 kts | 51° |
| 2026-04-25 07:13 | -33.74236 | 151.46468 | 14150 ft | 345 kts | 52° |
| 2026-04-25 07:13 | -33.72724 | 151.48668 | 14930 ft | 349 kts | 52° |
| 2026-04-25 07:13 | -33.71180 | 151.50949 | 15724 ft | 352 kts | 53° |
| 2026-04-25 07:13 | -33.69640 | 151.53239 | 16465 ft | 356 kts | 53° |
| 2026-04-25 07:14 | -33.68085 | 151.55554 | 17191 ft | 361 kts | 53° |
| 2026-04-25 07:14 | -33.66491 | 151.57898 | 17935 ft | 364 kts | 52° |
| 2026-04-25 07:14 | -33.64772 | 151.60164 | 18625 ft | 369 kts | 46° |
| 2026-04-25 07:14 | -33.62824 | 151.62151 | 19317 ft | 374 kts | 40° |
| 2026-04-25 07:15 | -33.60675 | 151.63977 | 19996 ft | 379 kts | 37° |
| 2026-04-25 07:15 | -33.58463 | 151.65704 | 20648 ft | 382 kts | 35° |
| 2026-04-25 07:15 | -33.56215 | 151.67413 | 21271 ft | 386 kts | 35° |
| 2026-04-25 07:15 | -33.53934 | 151.69141 | 21882 ft | 390 kts | 35° |
| 2026-04-25 07:16 | -33.51623 | 151.70831 | 22481 ft | 395 kts | 32° |
| 2026-04-25 07:16 | -33.49142 | 151.72288 | 23042 ft | 401 kts | 26° |
| 2026-04-25 07:16 | -33.46520 | 151.73473 | 23594 ft | 407 kts | 21° |
| 2026-04-25 07:16 | -33.43803 | 151.74484 | 24161 ft | 411 kts | 19° |
| 2026-04-25 07:17 | -33.41020 | 151.75417 | 24679 ft | 415 kts | 18° |
| 2026-04-25 07:17 | -33.38232 | 151.76303 | 25159 ft | 420 kts | 18° |
| 2026-04-25 07:17 | -33.35401 | 151.77191 | 25667 ft | 424 kts | 18° |
| 2026-04-25 07:17 | -33.32535 | 151.78090 | 26117 ft | 428 kts | 18° |
| 2026-04-25 07:18 | -33.29634 | 151.79005 | 26583 ft | 432 kts | 18° |
| 2026-04-25 07:18 | -33.26710 | 151.79933 | 27049 ft | 435 kts | 18° |
| 2026-04-25 07:18 | -33.23795 | 151.80862 | 27468 ft | 440 kts | 18° |
| 2026-04-25 07:18 | -33.20810 | 151.81816 | 27941 ft | 442 kts | 18° |
| 2026-04-25 07:19 | -33.17833 | 151.82770 | 28338 ft | 447 kts | 18° |
| 2026-04-25 07:19 | -33.14867 | 151.83722 | 28766 ft | 450 kts | 18° |
| 2026-04-25 07:19 | -33.11815 | 151.84701 | 29141 ft | 454 kts | 18° |
| 2026-04-25 07:19 | -33.08781 | 151.85677 | 29570 ft | 457 kts | 18° |
| 2026-04-25 07:20 | -33.05705 | 151.86664 | 29923 ft | 461 kts | 18° |
| 2026-04-25 07:20 | -33.02572 | 151.87671 | 30261 ft | 465 kts | 18° |
| 2026-04-25 07:20 | -32.99461 | 151.88667 | 30820 ft | 464 kts | 18° |
| 2026-04-25 07:20 | -32.96339 | 151.89667 | 31391 ft | 462 kts | 18° |
| 2026-04-25 07:21 | -32.93240 | 151.90659 | 31796 ft | 463 kts | 18° |
| 2026-04-25 07:21 | -32.90123 | 151.91655 | 32194 ft | 465 kts | 18° |
| 2026-04-25 07:21 | -32.87180 | 151.92596 | 32611 ft | 465 kts | 18° |
| 2026-04-25 07:21 | -32.83960 | 151.93625 | 33075 ft | 464 kts | 18° |
| 2026-04-25 07:22 | -32.80847 | 151.94618 | 33454 ft | 465 kts | 18° |
| 2026-04-25 07:22 | -32.77708 | 151.95621 | 33882 ft | 464 kts | 18° |
| 2026-04-25 07:22 | -32.74568 | 151.96622 | 34301 ft | 464 kts | 18° |
| 2026-04-25 07:22 | -32.71439 | 151.97618 | 34777 ft | 463 kts | 18° |
| 2026-04-25 07:23 | -32.68360 | 151.98596 | 35293 ft | 460 kts | 18° |
| 2026-04-25 07:23 | -32.65262 | 151.99580 | 35820 ft | 457 kts | 18° |
| 2026-04-25 07:23 | -32.62198 | 152.00554 | 36297 ft | 455 kts | 18° |
| 2026-04-25 07:23 | -32.59152 | 152.01521 | 36658 ft | 454 kts | 18° |
| 2026-04-25 07:24 | -32.56099 | 152.02492 | 37002 ft | 454 kts | 18° |
| 2026-04-25 07:24 | -32.53004 | 152.03476 | 37297 ft | 455 kts | 18° |
| 2026-04-25 07:24 | -32.46888 | 152.05417 | 37345 ft | 458 kts | 18° |
| 2026-04-25 07:25 | -32.40758 | 152.07355 | 37344 ft | 454 kts | 18° |
| 2026-04-25 07:25 | -32.34586 | 152.09306 | 37342 ft | 457 kts | 18° |
| 2026-04-25 07:26 | -32.28458 | 152.11241 | 37345 ft | 457 kts | 18° |
| 2026-04-25 07:26 | -32.22291 | 152.13185 | 37343 ft | 456 kts | 18° |
| 2026-04-25 07:27 | -32.16143 | 152.15122 | 37344 ft | 456 kts | 18° |
| 2026-04-25 07:27 | -32.10017 | 152.17046 | 37348 ft | 457 kts | 18° |
| 2026-04-25 07:28 | -32.03877 | 152.18974 | 37345 ft | 455 kts | 18° |
| 2026-04-25 07:28 | -31.97720 | 152.20903 | 37344 ft | 456 kts | 18° |
| 2026-04-25 07:29 | -31.91595 | 152.22821 | 37349 ft | 457 kts | 18° |
| 2026-04-25 07:29 | -31.85770 | 152.24641 | 37349 ft | 457 kts | 18° |
| 2026-04-25 07:30 | -31.79396 | 152.26631 | 37353 ft | 458 kts | 18° |
| 2026-04-25 07:30 | -31.73226 | 152.28555 | 37355 ft | 458 kts | 18° |
| 2026-04-25 07:31 | -31.67027 | 152.30484 | 37351 ft | 458 kts | 18° |
| 2026-04-25 07:31 | -31.60875 | 152.32396 | 37352 ft | 458 kts | 18° |
| 2026-04-25 07:32 | -31.54672 | 152.34323 | 37356 ft | 459 kts | 18° |
| 2026-04-25 07:32 | -31.48517 | 152.36232 | 37356 ft | 459 kts | 18° |
| 2026-04-25 07:33 | -31.42291 | 152.38158 | 37354 ft | 461 kts | 18° |
| 2026-04-25 07:33 | -31.36061 | 152.40083 | 37352 ft | 460 kts | 18° |
| 2026-04-25 07:34 | -31.29858 | 152.41998 | 37349 ft | 461 kts | 18° |
| 2026-04-25 07:34 | -31.23651 | 152.43912 | 37352 ft | 461 kts | 18° |
| 2026-04-25 07:35 | -31.17454 | 152.45821 | 37351 ft | 461 kts | 18° |
| 2026-04-25 07:35 | -31.11250 | 152.47728 | 37346 ft | 461 kts | 18° |
| 2026-04-25 07:36 | -31.05047 | 152.49631 | 37347 ft | 461 kts | 18° |
| 2026-04-25 07:36 | -30.98801 | 152.51546 | 37344 ft | 462 kts | 18° |
| 2026-04-25 07:37 | -30.92605 | 152.53444 | 37328 ft | 461 kts | 18° |
| 2026-04-25 07:37 | -30.86418 | 152.55336 | 37339 ft | 464 kts | 18° |
| 2026-04-25 07:38 | -30.80256 | 152.57217 | 37340 ft | 463 kts | 18° |
| 2026-04-25 07:38 | -30.74070 | 152.59286 | 37340 ft | 462 kts | 21° |
| 2026-04-25 07:39 | -30.67890 | 152.61565 | 37340 ft | 463 kts | 21° |
| 2026-04-25 07:39 | -30.61767 | 152.63841 | 37345 ft | 462 kts | 21° |
| 2026-04-25 07:40 | -30.55619 | 152.66106 | 37338 ft | 463 kts | 21° |
| 2026-04-25 07:40 | -30.49458 | 152.68352 | 37341 ft | 462 kts | 20° |
| 2026-04-25 07:41 | -30.43303 | 152.70581 | 37334 ft | 463 kts | 20° |
| 2026-04-25 07:41 | -30.37129 | 152.72810 | 37348 ft | 464 kts | 20° |
| 2026-04-25 07:42 | -30.30942 | 152.75037 | 37344 ft | 463 kts | 20° |
| 2026-04-25 07:42 | -30.24784 | 152.77251 | 37346 ft | 464 kts | 20° |
| 2026-04-25 07:43 | -30.18613 | 152.79468 | 37350 ft | 464 kts | 20° |
| 2026-04-25 07:43 | -30.12385 | 152.81702 | 37352 ft | 467 kts | 20° |
| 2026-04-25 07:44 | -30.06192 | 152.83922 | 37352 ft | 466 kts | 20° |
| 2026-04-25 07:44 | -30.00005 | 152.86134 | 37341 ft | 465 kts | 20° |
| 2026-04-25 07:45 | -29.93804 | 152.88350 | 37349 ft | 466 kts | 20° |
| 2026-04-25 07:45 | -29.87732 | 152.90515 | 37340 ft | 465 kts | 20° |
| 2026-04-25 07:46 | -29.81551 | 152.92717 | 37341 ft | 466 kts | 19° |
| 2026-04-25 07:46 | -29.75318 | 152.94937 | 37320 ft | 465 kts | 19° |
| 2026-04-25 07:47 | -29.69141 | 152.97131 | 37319 ft | 466 kts | 19° |
| 2026-04-25 07:47 | -29.62945 | 152.99332 | 37316 ft | 467 kts | 19° |
| 2026-04-25 07:48 | -29.56711 | 153.01540 | 37311 ft | 466 kts | 19° |
| 2026-04-25 07:48 | -29.50535 | 153.03725 | 37312 ft | 466 kts | 19° |
| 2026-04-25 07:49 | -29.44319 | 153.05922 | 37307 ft | 467 kts | 19° |
| 2026-04-25 07:49 | -29.38076 | 153.08125 | 37307 ft | 466 kts | 19° |
| 2026-04-25 07:50 | -29.31882 | 153.10309 | 37303 ft | 466 kts | 19° |
| 2026-04-25 07:50 | -29.25680 | 153.12494 | 37304 ft | 466 kts | 19° |
| 2026-04-25 07:51 | -29.19485 | 153.14674 | 37302 ft | 465 kts | 19° |
| 2026-04-25 07:51 | -29.13289 | 153.16855 | 37303 ft | 467 kts | 19° |
| 2026-04-25 07:52 | -29.07054 | 153.19045 | 37302 ft | 469 kts | 19° |
| 2026-04-25 07:52 | -29.00843 | 153.21222 | 37113 ft | 462 kts | 19° |
| 2026-04-25 07:53 | -28.97781 | 153.22293 | 36722 ft | 457 kts | 19° |
| 2026-04-25 07:53 | -28.94743 | 153.23355 | 36177 ft | 455 kts | 19° |
| 2026-04-25 07:53 | -28.91721 | 153.24411 | 35615 ft | 454 kts | 19° |
| 2026-04-25 07:53 | -28.88793 | 153.25433 | 35210 ft | 451 kts | 20° |
| 2026-04-25 07:54 | -28.85972 | 153.26419 | 34732 ft | 451 kts | 20° |
| 2026-04-25 07:54 | -28.83024 | 153.27449 | 34206 ft | 451 kts | 20° |
| 2026-04-25 07:54 | -28.79923 | 153.28531 | 33636 ft | 451 kts | 20° |
| 2026-04-25 07:54 | -28.76939 | 153.29573 | 33086 ft | 450 kts | 20° |
| 2026-04-25 07:55 | -28.73924 | 153.30624 | 32529 ft | 449 kts | 20° |
| 2026-04-25 07:55 | -28.70958 | 153.31657 | 31990 ft | 448 kts | 20° |
| 2026-04-25 07:55 | -28.67970 | 153.32698 | 31473 ft | 446 kts | 20° |
| 2026-04-25 07:55 | -28.65001 | 153.33731 | 30921 ft | 445 kts | 20° |
| 2026-04-25 07:56 | -28.62021 | 153.34769 | 30373 ft | 444 kts | 19° |
| 2026-04-25 07:56 | -28.59121 | 153.35777 | 29798 ft | 442 kts | 20° |
| 2026-04-25 07:56 | -28.56184 | 153.36798 | 29229 ft | 439 kts | 19° |
| 2026-04-25 07:56 | -28.53280 | 153.37807 | 28681 ft | 435 kts | 19° |
| 2026-04-25 07:57 | -28.50390 | 153.38808 | 28159 ft | 431 kts | 19° |
| 2026-04-25 07:57 | -28.47512 | 153.39806 | 27629 ft | 427 kts | 19° |
| 2026-04-25 07:57 | -28.44691 | 153.40784 | 27103 ft | 424 kts | 19° |
| 2026-04-25 07:57 | -28.41848 | 153.41768 | 26567 ft | 420 kts | 19° |
| 2026-04-25 07:58 | -28.39091 | 153.42722 | 26062 ft | 416 kts | 19° |
| 2026-04-25 07:58 | -28.36310 | 153.43684 | 25551 ft | 412 kts | 19° |
| 2026-04-25 07:58 | -28.33578 | 153.44629 | 25045 ft | 408 kts | 19° |
| 2026-04-25 07:58 | -28.30859 | 153.45569 | 24532 ft | 404 kts | 19° |
| 2026-04-25 07:59 | -28.28148 | 153.46506 | 24023 ft | 400 kts | 19° |
| 2026-04-25 07:59 | -28.25495 | 153.47421 | 23526 ft | 396 kts | 19° |
| 2026-04-25 07:59 | -28.22881 | 153.48323 | 23042 ft | 391 kts | 20° |
| 2026-04-25 07:59 | -28.20285 | 153.49213 | 22556 ft | 387 kts | 18° |
| 2026-04-25 08:00 | -28.17668 | 153.49925 | 22079 ft | 385 kts | 12° |
| 2026-04-25 08:00 | -28.14998 | 153.50089 | 21604 ft | 383 kts | 358° |
| 2026-04-25 08:00 | -28.12376 | 153.49731 | 21139 ft | 380 kts | 353° |
| 2026-04-25 08:00 | -28.09786 | 153.49197 | 20667 ft | 377 kts | 351° |
| 2026-04-25 08:01 | -28.07224 | 153.48608 | 20199 ft | 374 kts | 351° |
| 2026-04-25 08:01 | -28.04694 | 153.48018 | 19732 ft | 370 kts | 351° |
| 2026-04-25 08:01 | -28.02163 | 153.47440 | 19265 ft | 367 kts | 351° |
| 2026-04-25 08:01 | -27.99683 | 153.46889 | 18810 ft | 363 kts | 352° |
| 2026-04-25 08:02 | -27.97223 | 153.46355 | 18358 ft | 360 kts | 352° |
| 2026-04-25 08:02 | -27.94759 | 153.45831 | 17905 ft | 356 kts | 352° |
| 2026-04-25 08:02 | -27.92319 | 153.45320 | 17457 ft | 353 kts | 352° |
| 2026-04-25 08:02 | -27.89925 | 153.44824 | 17024 ft | 349 kts | 353° |
| 2026-04-25 08:03 | -27.87644 | 153.44353 | 16601 ft | 346 kts | 353° |
| 2026-04-25 08:03 | -27.85292 | 153.43867 | 16172 ft | 342 kts | 353° |
| 2026-04-25 08:03 | -27.82961 | 153.43385 | 15746 ft | 339 kts | 353° |
| 2026-04-25 08:03 | -27.80649 | 153.42908 | 15313 ft | 335 kts | 353° |
| 2026-04-25 08:04 | -27.78364 | 153.42435 | 14898 ft | 332 kts | 353° |
| 2026-04-25 08:04 | -27.76088 | 153.41965 | 14476 ft | 329 kts | 353° |
| 2026-04-25 08:04 | -27.73859 | 153.41504 | 14070 ft | 326 kts | 353° |
| 2026-04-25 08:04 | -27.71630 | 153.41045 | 13658 ft | 322 kts | 354° |
| 2026-04-25 08:05 | -27.69434 | 153.40593 | 13258 ft | 319 kts | 354° |
| 2026-04-25 08:05 | -27.67245 | 153.40144 | 12853 ft | 317 kts | 354° |
| 2026-04-25 08:05 | -27.65092 | 153.39705 | 12457 ft | 314 kts | 354° |
| 2026-04-25 08:05 | -27.62943 | 153.39452 | 12235 ft | 302 kts | 3° |
| 2026-04-25 08:06 | -27.60870 | 153.39468 | 12248 ft | 301 kts | 7° |
| 2026-04-25 08:06 | -27.58762 | 153.39587 | 12237 ft | 301 kts | 8° |
| 2026-04-25 08:06 | -27.56667 | 153.39726 | 12240 ft | 301 kts | 8° |
| 2026-04-25 08:06 | -27.54546 | 153.39850 | 12194 ft | 301 kts | 7° |
| 2026-04-25 08:07 | -27.52485 | 153.39955 | 11916 ft | 297 kts | 7° |
| 2026-04-25 08:07 | -27.50435 | 153.40053 | 11557 ft | 295 kts | 7° |
| 2026-04-25 08:07 | -27.48394 | 153.40147 | 11177 ft | 293 kts | 7° |
| 2026-04-25 08:07 | -27.46348 | 153.40243 | 10804 ft | 291 kts | 7° |
| 2026-04-25 08:08 | -27.44335 | 153.40335 | 10446 ft | 289 kts | 7° |
| 2026-04-25 08:08 | -27.42335 | 153.40424 | 10142 ft | 285 kts | 7° |
| 2026-04-25 08:08 | -27.40355 | 153.40511 | 9829 ft | 282 kts | 7° |
| 2026-04-25 08:08 | -27.38407 | 153.40601 | 9487 ft | 281 kts | 7° |
| 2026-04-25 08:09 | -27.36459 | 153.40691 | 9215 ft | 279 kts | 7° |
| 2026-04-25 08:09 | -27.34507 | 153.40782 | 8977 ft | 279 kts | 7° |
| 2026-04-25 08:09 | -27.32584 | 153.40868 | 8848 ft | 272 kts | 7° |
| 2026-04-25 08:09 | -27.30691 | 153.40950 | 8565 ft | 269 kts | 7° |
| 2026-04-25 08:10 | -27.28823 | 153.41037 | 8222 ft | 269 kts | 7° |
| 2026-04-25 08:10 | -27.26951 | 153.41124 | 7891 ft | 268 kts | 8° |
| 2026-04-25 08:10 | -27.25095 | 153.41209 | 7562 ft | 267 kts | 8° |
| 2026-04-25 08:10 | -27.23226 | 153.41295 | 7225 ft | 267 kts | 7° |
| 2026-04-25 08:11 | -27.21384 | 153.41371 | 6886 ft | 267 kts | 6° |
| 2026-04-25 08:11 | -27.19524 | 153.41174 | 6543 ft | 272 kts | 348° |
| 2026-04-25 08:11 | -27.17823 | 153.40192 | 6242 ft | 278 kts | 325° |
| 2026-04-25 08:11 | -27.16339 | 153.38760 | 5893 ft | 286 kts | 320° |
| 2026-04-25 08:12 | -27.14897 | 153.37233 | 5508 ft | 282 kts | 315° |
| 2026-04-25 08:12 | -27.13752 | 153.35506 | 5373 ft | 271 kts | 300° |
| 2026-04-25 08:12 | -27.13158 | 153.33595 | 5237 ft | 254 kts | 272° |
| 2026-04-25 08:12 | -27.13416 | 153.31773 | 5169 ft | 220 kts | 242° |
| 2026-04-25 08:13 | -27.14045 | 153.30348 | 5155 ft | 189 kts | 236° |
| 2026-04-25 08:13 | -27.14594 | 153.29086 | 5061 ft | 168 kts | 237° |
| 2026-04-25 08:13 | -27.15090 | 153.27911 | 5010 ft | 167 kts | 236° |
| 2026-04-25 08:14 | -27.16174 | 153.25626 | 4898 ft | 160 kts | 218° |
| 2026-04-25 08:14 | -27.17065 | 153.24976 | 4656 ft | 150 kts | 192° |
| 2026-04-25 08:14 | -27.18014 | 153.24518 | 4306 ft | 148 kts | 195° |
| 2026-04-25 08:14 | -27.18924 | 153.24010 | 4026 ft | 146 kts | 195° |
| 2026-04-25 08:15 | -27.19826 | 153.23477 | 3884 ft | 145 kts | 198° |
| 2026-04-25 08:15 | -27.20740 | 153.22925 | 3752 ft | 149 kts | 197° |
| 2026-04-25 08:15 | -27.21655 | 153.22397 | 3478 ft | 145 kts | 196° |
| 2026-04-25 08:15 | -27.22548 | 153.21884 | 3285 ft | 142 kts | 196° |
| 2026-04-25 08:16 | -27.23448 | 153.21378 | 3106 ft | 145 kts | 197° |
| 2026-04-25 08:16 | -27.24345 | 153.20868 | 2885 ft | 143 kts | 197° |
| 2026-04-25 08:16 | -27.25234 | 153.20363 | 2691 ft | 142 kts | 196° |
| 2026-04-25 08:16 | -27.26110 | 153.19867 | 2495 ft | 141 kts | 196° |
| 2026-04-25 08:17 | -27.26989 | 153.19368 | 2306 ft | 139 kts | 196° |
| 2026-04-25 08:17 | -27.27851 | 153.18880 | 2133 ft | 140 kts | 196° |
| 2026-04-25 08:17 | -27.28737 | 153.18376 | 1925 ft | 143 kts | 196° |
| 2026-04-25 08:17 | -27.29620 | 153.17879 | 1729 ft | 140 kts | 196° |
| 2026-04-25 08:18 | -27.30476 | 153.17389 | 1551 ft | 140 kts | 198° |
| 2026-04-25 08:18 | -27.31374 | 153.16884 | 1349 ft | 141 kts | 199° |
| 2026-04-25 08:18 | -27.32248 | 153.16377 | 1016 ft | 146 kts | 200° |
| 2026-04-25 08:18 | -27.33152 | 153.15851 | 921 ft | 141 kts | 202° |
| 2026-04-25 08:19 | -27.34022 | 153.15356 | 692 ft | 142 kts | 200° |
| 2026-04-25 08:19 | -27.34906 | 153.14879 | 606 ft | 136 kts | 202° |
| 2026-04-25 08:19 | -27.35765 | 153.14397 | 455 ft | 137 kts | 202° |
| 2026-04-25 08:19 | -27.36625 | 153.13910 | 213 ft | 140 kts | 205° |
| 2026-04-25 08:20 | -27.37489 | 153.13419 | 55 ft | 139 kts | 205° |
| 2026-04-25 08:20 | -27.38320 | 153.12949 | 16 ft | 122 kts | 208° |
| 2026-04-25 08:20 | -27.38803 | 153.12663 | 18 ft | 42 kts | 211° |
| 2026-04-25 08:20 | -27.39019 | 153.12433 | 20 ft | 42 kts | 239° |
| 2026-04-25 08:21 | -27.39117 | 153.12251 | 19 ft | 18 kts | 238° |
| 2026-04-25 08:21 | -27.39107 | 153.12143 | 20 ft | 12 kts | 322° |
| 2026-04-25 08:21 | -27.39043 | 153.12155 | 21 ft | 9 kts | 28° |
| 2026-04-25 08:21 | -27.38938 | 153.12221 | 23 ft | 19 kts | 30° |
| 2026-04-25 08:22 | -27.38831 | 153.12285 | 25 ft | 16 kts | 27° |
| 2026-04-25 08:22 | -27.38708 | 153.12357 | 24 ft | 19 kts | 26° |
| 2026-04-25 08:22 | -27.38591 | 153.12424 | 23 ft | 17 kts | 27° |
| 2026-04-25 08:22 | -27.38488 | 153.12485 | 22 ft | 15 kts | 27° |
| 2026-04-25 08:23 | -27.38397 | 153.12538 | 21 ft | 13 kts | 28° |
| 2026-04-25 08:23 | -27.38317 | 153.12584 | 20 ft | 12 kts | 26° |
| 2026-04-25 08:23 | -27.38246 | 153.12624 | 18 ft | 10 kts | 26° |
| 2026-04-25 08:23 | -27.38236 | 153.12628 | 18 ft | 0 kts | 26° |
| 2026-04-25 08:24 | -27.38212 | 153.12642 | 18 ft | 10 kts | 26° |
| 2026-04-25 08:24 | -27.38149 | 153.12677 | 18 ft | 8 kts | 26° |
| 2026-04-25 08:24 | -27.38080 | 153.12712 | 18 ft | 15 kts | 15° |
| 2026-04-25 08:24 | -27.38033 | 153.12648 | 18 ft | 13 kts | 232° |
| 2026-04-25 08:25 | -27.38107 | 153.12596 | 18 ft | 12 kts | 206° |
| 2026-04-25 08:25 | -27.38202 | 153.12543 | 18 ft | 16 kts | 206° |
| 2026-04-25 08:25 | -27.38269 | 153.12473 | 21 ft | 14 kts | 274° |
| 2026-04-25 08:25 | -27.38233 | 153.12370 | 22 ft | 12 kts | 295° |
| 2026-04-25 08:26 | -27.38207 | 153.12294 | 22 ft | 9 kts | 286° |
| 2026-04-25 08:26 | -27.38202 | 153.12250 | 22 ft | 4 kts | 230° |
| 2026-04-25 08:26 | -27.38225 | 153.12231 | 23 ft | 3 kts | 204° |
| 2026-04-25 08:26 | -27.38238 | 153.12224 | 23 ft | 0 kts | 204° |